Time,TemperatureF,DewpointF,PressureIn,WindDirection,WindDirectionDegrees,WindSpeedMPH,WindSpeedGustMPH,Humidity,HourlyPrecipIn,Conditions,Clouds,dailyrainin,SoftwareType,DateUTC
2013-02-02 00:01:00,23.0,22.0,30.56,West,279,0.0,-999.0,96,-99.99,,,-99.99,,2013-02-02 08:01:00,
2013-02-02 00:11:00,23.0,22.0,30.56,West,279,0.0,-999.0,96,-99.99,,,-99.99,,2013-02-02 08:11:00,
2013-02-02 00:21:00,23.0,22.0,30.55,West,279,0.0,-999.0,96,-99.99,,,-99.99,,2013-02-02 08:21:00,
2013-02-02 00:31:00,22.0,21.0,30.56,West,279,0.0,-999.0,95,-99.99,,,-99.99,,2013-02-02 08:31:00,
2013-02-02 00:41:00,22.0,21.0,30.56,West,279,0.0,-999.0,95,-99.99,,,-99.99,,2013-02-02 08:41:00,
2013-02-02 00:52:00,22.0,21.0,30.56,West,279,0.0,-999.0,96,-99.99,,,-99.99,,2013-02-02 08:52:00,
2013-02-02 01:01:00,21.0,20.0,30.57,West,279,0.0,-999.0,96,-99.99,,,-99.99,,2013-02-02 09:01:00,
2013-02-02 01:22:00,22.0,21.0,30.57,West,279,0.0,-999.0,96,-99.99,,,-99.99,,2013-02-02 09:22:00,
2013-02-02 01:31:00,22.0,21.0,30.57,West,279,0.0,-999.0,96,-99.99,,,-99.99,,2013-02-02 09:31:00,
2013-02-02 01:41:00,22.0,21.0,30.57,West,279,0.0,-999.0,96,-99.99,,,-99.99,,2013-02-02 09:41:00,
2013-02-02 01:51:00,22.0,21.0,30.58,West,279,0.0,-999.0,96,-99.99,,,-99.99,,2013-02-02 09:51:00,
2013-02-02 02:01:00,23.0,22.0,30.59,West,279,0.0,-999.0,96,-99.99,,,-99.99,,2013-02-02 10:01:00,
2013-02-02 02:11:00,23.0,22.0,30.59,West,279,0.0,-999.0,96,-99.99,,,-99.99,,2013-02-02 10:11:00,
2013-02-02 02:21:00,23.0,22.0,30.59,West,279,0.0,-999.0,96,-99.99,,,-99.99,,2013-02-02 10:21:00,
2013-02-02 02:31:00,22.0,21.0,30.59,West,279,0.0,-999.0,96,-99.99,,,-99.99,,2013-02-02 10:31:00,
2013-02-02 02:41:00,22.0,21.0,30.59,West,279,0.0,-999.0,96,-99.99,,,-99.99,,2013-02-02 10:41:00,
2013-02-02 02:51:00,22.0,21.0,30.59,West,279,0.0,-999.0,95,-99.99,,,-99.99,,2013-02-02 10:51:00,
2013-02-02 03:01:00,22.0,21.0,30.59,West,279,0.0,-999.0,96,-99.99,,,-99.99,,2013-02-02 11:01:00,
2013-02-02 03:11:00,22.0,21.0,30.59,West,279,0.0,-999.0,96,-99.99,,,-99.99,,2013-02-02 11:11:00,
2013-02-02 03:21:00,22.0,21.0,30.59,West,279,0.0,-999.0,95,-99.99,,,-99.99,,2013-02-02 11:21:00,
2013-02-02 03:31:00,21.0,20.0,30.59,West,279,0.0,-999.0,95,-99.99,,,-99.99,,2013-02-02 11:31:00,
2013-02-02 03:41:00,21.0,20.0,30.59,West,279,0.0,-999.0,95,-99.99,,,-99.99,,2013-02-02 11:41:00,
2013-02-02 03:52:00,20.0,19.0,30.59,West,279,0.0,-999.0,95,-99.99,,,-99.99,,2013-02-02 11:52:00,
2013-02-02 04:01:00,20.0,19.0,30.59,West,279,0.0,-999.0,95,-99.99,,,-99.99,,2013-02-02 12:01:00,
2013-02-02 04:22:00,20.0,19.0,30.59,West,279,0.0,-999.0,95,-99.99,,,-99.99,,2013-02-02 12:22:00,
2013-02-02 04:32:00,20.0,19.0,30.60,West,279,0.0,-999.0,95,-99.99,,,-99.99,,2013-02-02 12:32:00,
2013-02-02 04:42:00,20.0,19.0,30.60,West,279,0.0,-999.0,95,-99.99,,,-99.99,,2013-02-02 12:42:00,
2013-02-02 04:52:00,20.0,19.0,30.60,West,279,0.0,-999.0,96,-99.99,,,-99.99,,2013-02-02 12:52:00,
2013-02-02 05:02:00,20.0,19.0,30.60,West,279,0.0,-999.0,95,-99.99,,,-99.99,,2013-02-02 13:02:00,
2013-02-02 05:11:00,20.0,19.0,30.60,West,279,0.0,-999.0,95,-99.99,,,-99.99,,2013-02-02 13:11:00,
2013-02-02 05:21:00,20.0,19.0,30.59,West,279,0.0,-999.0,95,-99.99,,,-99.99,,2013-02-02 13:21:00,
2013-02-02 05:32:00,20.0,19.0,30.59,West,279,0.0,-999.0,95,-99.99,,,-99.99,,2013-02-02 13:32:00,
2013-02-02 05:42:00,20.0,19.0,30.59,West,279,0.0,-999.0,95,-99.99,,,-99.99,,2013-02-02 13:42:00,
2013-02-02 05:51:00,19.0,18.0,30.59,West,279,0.0,-999.0,94,-99.99,,,-99.99,,2013-02-02 13:51:00,
2013-02-02 06:02:00,19.0,18.0,30.59,West,279,0.0,-999.0,94,-99.99,,,-99.99,,2013-02-02 14:02:00,
2013-02-02 06:11:00,19.0,18.0,30.59,West,279,0.0,-999.0,94,-99.99,,,-99.99,,2013-02-02 14:11:00,
2013-02-02 06:22:00,18.0,16.0,30.59,West,279,0.0,-999.0,93,-99.99,,,-99.99,,2013-02-02 14:22:00,
2013-02-02 06:32:00,17.0,15.0,30.59,West,279,0.0,-999.0,93,-99.99,,,-99.99,,2013-02-02 14:32:00,
2013-02-02 06:41:00,17.0,15.0,30.59,West,279,0.0,-999.0,93,-99.99,,,-99.99,,2013-02-02 14:41:00,
2013-02-02 06:52:00,17.0,16.0,30.60,West,279,0.0,-999.0,94,-99.99,,,-99.99,,2013-02-02 14:52:00,
2013-02-02 07:02:00,17.0,16.0,30.60,West,279,0.0,-999.0,94,-99.99,,,-99.99,,2013-02-02 15:02:00,
2013-02-02 07:21:00,16.0,15.0,30.60,West,279,0.0,-999.0,94,-99.99,,,-99.99,,2013-02-02 15:21:00,
2013-02-02 07:32:00,17.0,16.0,30.60,West,279,0.0,-999.0,94,-99.99,,,-99.99,,2013-02-02 15:32:00,
2013-02-02 07:41:00,17.0,16.0,30.60,West,279,0.0,-999.0,94,-99.99,,,-99.99,,2013-02-02 15:41:00,
2013-02-02 07:51:00,17.0,16.0,30.60,West,279,0.0,-999.0,94,-99.99,,,-99.99,,2013-02-02 15:51:00,
2013-02-02 08:02:00,18.0,17.0,30.61,West,279,0.0,-999.0,95,-99.99,,,-99.99,,2013-02-02 16:02:00,
2013-02-02 08:11:00,18.0,17.0,30.61,West,279,0.0,-999.0,95,-99.99,,,-99.99,,2013-02-02 16:11:00,
2013-02-02 08:21:00,20.0,19.0,30.61,West,279,0.0,-999.0,96,-99.99,,,-99.99,,2013-02-02 16:21:00,
2013-02-02 08:31:00,18.0,17.0,30.60,West,279,0.0,-999.0,94,-99.99,,,-99.99,,2013-02-02 16:31:00,
2013-02-02 08:42:00,18.0,17.0,30.60,West,279,0.0,-999.0,94,-99.99,,,-99.99,,2013-02-02 16:42:00,
2013-02-02 08:51:00,19.0,18.0,30.61,West,279,0.0,-999.0,96,-99.99,,,-99.99,,2013-02-02 16:51:00,
2013-02-02 09:02:00,20.0,19.0,30.62,West,279,0.0,-999.0,94,-99.99,,,-99.99,,2013-02-02 17:02:00,
2013-02-02 09:11:00,20.0,19.0,30.62,West,279,0.0,-999.0,94,-99.99,,,-99.99,,2013-02-02 17:11:00,
2013-02-02 09:21:00,21.0,20.0,30.61,West,279,0.0,-999.0,95,-99.99,,,-99.99,,2013-02-02 17:21:00,
2013-02-02 09:32:00,22.0,21.0,30.62,West,279,0.0,-999.0,94,-99.99,,,-99.99,,2013-02-02 17:32:00,
2013-02-02 09:41:00,22.0,21.0,30.62,West,279,0.0,-999.0,94,-99.99,,,-99.99,,2013-02-02 17:41:00,
2013-02-02 09:52:00,24.0,23.0,30.61,West,277,0.0,-999.0,95,-99.99,,,-99.99,,2013-02-02 17:52:00,
2013-02-02 10:02:00,26.0,25.0,30.61,West,277,0.0,-999.0,94,-99.99,,,-99.99,,2013-02-02 18:02:00,
2013-02-02 10:11:00,26.0,25.0,30.61,West,277,0.0,-999.0,94,-99.99,,,-99.99,,2013-02-02 18:11:00,
2013-02-02 10:21:00,29.0,27.0,30.61,West,277,0.0,-999.0,94,-99.99,,,-99.99,,2013-02-02 18:21:00,
2013-02-02 10:31:00,32.0,30.0,30.61,West,277,0.0,-999.0,94,-99.99,,,-99.99,,2013-02-02 18:31:00,
2013-02-02 10:41:00,32.0,30.0,30.61,West,277,0.0,-999.0,94,-99.99,,,-99.99,,2013-02-02 18:41:00,
2013-02-02 10:52:00,34.0,32.0,30.61,West,277,1.0,-999.0,92,-99.99,,,-99.99,,2013-02-02 18:52:00,
2013-02-02 11:01:00,36.0,33.0,30.61,West,277,0.0,-999.0,89,-99.99,,,-99.99,,2013-02-02 19:01:00,
2013-02-02 11:11:00,36.0,33.0,30.61,West,277,0.0,-999.0,89,-99.99,,,-99.99,,2013-02-02 19:11:00,
2013-02-02 11:21:00,37.0,33.0,30.60,West,277,0.0,-999.0,85,-99.99,,,-99.99,,2013-02-02 19:21:00,
2013-02-02 11:32:00,38.0,33.0,30.60,West,277,0.0,-999.0,81,-99.99,,,-99.99,,2013-02-02 19:32:00,
2013-02-02 11:41:00,38.0,33.0,30.60,West,277,0.0,-999.0,81,-99.99,,,-99.99,,2013-02-02 19:41:00,
2013-02-02 11:51:00,39.0,33.0,30.59,West,277,0.0,-999.0,79,-99.99,,,-99.99,,2013-02-02 19:51:00,
2013-02-02 12:01:00,40.0,34.0,30.58,West,277,0.0,-999.0,78,-99.99,,,-99.99,,2013-02-02 20:01:00,
2013-02-02 12:11:00,40.0,34.0,30.58,West,277,0.0,-999.0,78,-99.99,,,-99.99,,2013-02-02 20:11:00,
2013-02-02 12:21:00,41.0,33.0,30.57,West,277,0.0,-999.0,74,-99.99,,,-99.99,,2013-02-02 20:21:00,
2013-02-02 12:32:00,41.0,33.0,30.56,West,277,0.0,-999.0,73,-99.99,,,-99.99,,2013-02-02 20:32:00,
2013-02-02 12:41:00,41.0,33.0,30.56,West,277,0.0,-999.0,73,-99.99,,,-99.99,,2013-02-02 20:41:00,
2013-02-02 12:52:00,41.0,33.0,30.56,West,277,1.0,-999.0,72,-99.99,,,-99.99,,2013-02-02 20:52:00,
2013-02-02 13:01:00,42.0,34.0,30.55,West,277,0.0,-999.0,72,-99.99,,,-99.99,,2013-02-02 21:01:00,
2013-02-02 13:11:00,42.0,34.0,30.55,West,277,0.0,-999.0,72,-99.99,,,-99.99,,2013-02-02 21:11:00,
2013-02-02 13:21:00,43.0,34.0,30.55,West,277,0.0,-999.0,71,-99.99,,,-99.99,,2013-02-02 21:21:00,
2013-02-02 13:32:00,44.0,34.0,30.54,West,277,1.0,-999.0,67,-99.99,,,-99.99,,2013-02-02 21:32:00,
2013-02-02 13:42:00,44.0,34.0,30.54,West,277,1.0,-999.0,67,-99.99,,,-99.99,,2013-02-02 21:42:00,
2013-02-02 13:51:00,45.0,34.0,30.53,West,277,0.0,-999.0,64,-99.99,,,-99.99,,2013-02-02 21:51:00,
2013-02-02 14:02:00,45.0,32.0,30.53,West,277,0.0,-999.0,61,-99.99,,,-99.99,,2013-02-02 22:02:00,
2013-02-02 14:11:00,45.0,32.0,30.53,West,277,0.0,-999.0,61,-99.99,,,-99.99,,2013-02-02 22:11:00,
2013-02-02 14:21:00,45.0,32.0,30.52,West,277,0.0,-999.0,61,-99.99,,,-99.99,,2013-02-02 22:21:00,
2013-02-02 14:32:00,45.0,34.0,30.52,West,277,0.0,-999.0,65,-99.99,,,-99.99,,2013-02-02 22:32:00,
2013-02-02 14:41:00,45.0,34.0,30.52,West,277,0.0,-999.0,65,-99.99,,,-99.99,,2013-02-02 22:41:00,
2013-02-02 14:51:00,44.0,36.0,30.52,South,172,1.0,-999.0,72,-99.99,,,-99.99,,2013-02-02 22:51:00,
2013-02-02 15:01:00,44.0,35.0,30.51,South,173,1.0,-999.0,70,-99.99,,,-99.99,,2013-02-02 23:01:00,
2013-02-02 15:11:00,44.0,35.0,30.51,South,173,1.0,-999.0,70,-99.99,,,-99.99,,2013-02-02 23:11:00,
2013-02-02 15:21:00,44.0,34.0,30.50,South,173,0.0,-999.0,68,-99.99,,,-99.99,,2013-02-02 23:21:00,
2013-02-02 15:32:00,44.0,34.0,30.50,South,173,0.0,-999.0,68,-99.99,,,-99.99,,2013-02-02 23:32:00,
2013-02-02 15:41:00,44.0,34.0,30.50,South,173,0.0,-999.0,68,-99.99,,,-99.99,,2013-02-02 23:41:00,
2013-02-02 15:52:00,45.0,35.0,30.49,South,173,0.0,-999.0,68,-99.99,,,-99.99,,2013-02-02 23:52:00,
2013-02-02 16:01:00,43.0,35.0,30.49,South,173,0.0,-999.0,72,-99.99,,,-99.99,,2013-02-03 00:01:00,
2013-02-02 16:11:00,43.0,35.0,30.49,South,173,0.0,-999.0,72,-99.99,,,-99.99,,2013-02-03 00:11:00,
2013-02-02 16:21:00,41.0,35.0,30.49,South,173,0.0,-999.0,79,-99.99,,,-99.99,,2013-02-03 00:21:00,
2013-02-02 16:31:00,41.0,35.0,30.48,South,173,0.0,-999.0,79,-99.99,,,-99.99,,2013-02-03 00:31:00,
2013-02-02 16:41:00,41.0,35.0,30.48,South,173,0.0,-999.0,79,-99.99,,,-99.99,,2013-02-03 00:41:00,
2013-02-02 16:51:00,40.0,34.0,30.48,South,173,0.0,-999.0,79,-99.99,,,-99.99,,2013-02-03 00:51:00,
2013-02-02 17:01:00,38.0,33.0,30.48,South,173,0.0,-999.0,82,-99.99,,,-99.99,,2013-02-03 01:01:00,
2013-02-02 17:11:00,37.0,33.0,30.48,South,173,0.0,-999.0,85,-99.99,,,-99.99,,2013-02-03 01:11:00,
2013-02-02 17:21:00,37.0,33.0,30.48,South,173,0.0,-999.0,85,-99.99,,,-99.99,,2013-02-03 01:21:00,
2013-02-02 17:32:00,36.0,32.0,30.47,South,173,0.0,-999.0,86,-99.99,,,-99.99,,2013-02-03 01:32:00,
2013-02-02 17:41:00,36.0,32.0,30.47,South,173,0.0,-999.0,86,-99.99,,,-99.99,,2013-02-03 01:41:00,
2013-02-02 17:51:00,34.0,31.0,30.47,South,173,0.0,-999.0,88,-99.99,,,-99.99,,2013-02-03 01:51:00,
2013-02-02 18:01:00,33.0,30.0,30.48,South,173,0.0,-999.0,90,-99.99,,,-99.99,,2013-02-03 02:01:00,
2013-02-02 18:11:00,33.0,30.0,30.48,South,173,0.0,-999.0,90,-99.99,,,-99.99,,2013-02-03 02:11:00,
2013-02-02 18:21:00,32.0,30.0,30.47,South,173,0.0,-999.0,91,-99.99,,,-99.99,,2013-02-03 02:21:00,
2013-02-02 18:31:00,31.0,29.0,30.47,South,173,0.0,-999.0,92,-99.99,,,-99.99,,2013-02-03 02:31:00,
2013-02-02 18:41:00,31.0,29.0,30.47,South,173,0.0,-999.0,92,-99.99,,,-99.99,,2013-02-03 02:41:00,
2013-02-02 18:52:00,30.0,28.0,30.47,South,173,0.0,-999.0,92,-99.99,,,-99.99,,2013-02-03 02:52:00,
2013-02-02 19:01:00,30.0,28.0,30.47,South,173,0.0,-999.0,93,-99.99,,,-99.99,,2013-02-03 03:01:00,
2013-02-02 19:11:00,30.0,28.0,30.47,South,173,0.0,-999.0,93,-99.99,,,-99.99,,2013-02-03 03:11:00,
2013-02-02 19:21:00,28.0,26.0,30.47,South,173,0.0,-999.0,92,-99.99,,,-99.99,,2013-02-03 03:21:00,
2013-02-02 19:31:00,27.0,26.0,30.47,South,173,0.0,-999.0,94,-99.99,,,-99.99,,2013-02-03 03:31:00,
2013-02-02 19:41:00,27.0,26.0,30.47,South,173,0.0,-999.0,94,-99.99,,,-99.99,,2013-02-03 03:41:00,
2013-02-02 19:51:00,28.0,27.0,30.46,South,173,0.0,-999.0,95,-99.99,,,-99.99,,2013-02-03 03:51:00,
2013-02-02 20:01:00,27.0,26.0,30.45,South,173,0.0,-999.0,95,-99.99,,,-99.99,,2013-02-03 04:01:00,
2013-02-02 20:11:00,27.0,26.0,30.45,South,173,0.0,-999.0,95,-99.99,,,-99.99,,2013-02-03 04:11:00,
2013-02-02 20:21:00,26.0,25.0,30.45,South,173,0.0,-999.0,95,-99.99,,,-99.99,,2013-02-03 04:21:00,
2013-02-02 20:31:00,26.0,25.0,30.44,South,173,0.0,-999.0,95,-99.99,,,-99.99,,2013-02-03 04:31:00,
2013-02-02 20:42:00,26.0,25.0,30.44,South,173,0.0,-999.0,95,-99.99,,,-99.99,,2013-02-03 04:42:00,
2013-02-02 20:51:00,26.0,25.0,30.44,South,173,0.0,-999.0,95,-99.99,,,-99.99,,2013-02-03 04:51:00,
2013-02-02 21:03:00,26.0,25.0,30.43,South,173,0.0,-999.0,96,-99.99,,,-99.99,,2013-02-03 05:03:00,
2013-02-02 21:11:00,26.0,25.0,30.43,South,173,0.0,-999.0,96,-99.99,,,-99.99,,2013-02-03 05:11:00,
2013-02-02 21:22:00,26.0,25.0,30.42,South,173,0.0,-999.0,96,-99.99,,,-99.99,,2013-02-03 05:22:00,
2013-02-02 21:31:00,26.0,25.0,30.42,South,173,0.0,-999.0,96,-99.99,,,-99.99,,2013-02-03 05:31:00,
2013-02-02 21:41:00,26.0,25.0,30.42,South,173,0.0,-999.0,96,-99.99,,,-99.99,,2013-02-03 05:41:00,
2013-02-02 21:52:00,25.0,24.0,30.42,South,173,0.0,-999.0,95,-99.99,,,-99.99,,2013-02-03 05:52:00,
2013-02-02 22:02:00,25.0,24.0,30.42,South,173,0.0,-999.0,95,-99.99,,,-99.99,,2013-02-03 06:02:00,
2013-02-02 22:11:00,25.0,24.0,30.42,South,173,0.0,-999.0,95,-99.99,,,-99.99,,2013-02-03 06:11:00,
2013-02-02 22:21:00,25.0,24.0,30.41,South,173,0.0,-999.0,95,-99.99,,,-99.99,,2013-02-03 06:21:00,
2013-02-02 22:31:00,24.0,23.0,30.41,South,173,0.0,-999.0,95,-99.99,,,-99.99,,2013-02-03 06:31:00,
2013-02-02 22:41:00,24.0,23.0,30.41,South,173,0.0,-999.0,95,-99.99,,,-99.99,,2013-02-03 06:41:00,
2013-02-02 22:52:00,24.0,23.0,30.41,South,173,0.0,-999.0,95,-99.99,,,-99.99,,2013-02-03 06:52:00,
2013-02-02 23:01:00,24.0,23.0,30.40,South,173,0.0,-999.0,95,-99.99,,,-99.99,,2013-02-03 07:01:00,
2013-02-02 23:11:00,24.0,23.0,30.40,South,173,0.0,-999.0,95,-99.99,,,-99.99,,2013-02-03 07:11:00,
2013-02-02 23:21:00,23.0,22.0,30.40,South,173,0.0,-999.0,95,-99.99,,,-99.99,,2013-02-03 07:21:00,
2013-02-02 23:31:00,22.0,21.0,30.40,South,173,0.0,-999.0,94,-99.99,,,-99.99,,2013-02-03 07:31:00,
2013-02-02 23:41:00,22.0,21.0,30.40,South,173,0.0,-999.0,94,-99.99,,,-99.99,,2013-02-03 07:41:00,
2013-02-02 23:52:00,22.0,21.0,30.40,South,173,0.0,-999.0,95,-99.99,,,-99.99,,2013-02-03 07:52:00,